createdAt,value
2023-03-26T00:01:06.849Z,9.12
2023-03-26T00:03:50.691Z,9.09
2023-03-26T00:06:40.184Z,8.88
2023-03-26T00:09:18.456Z,9.05
2023-03-26T00:11:59.032Z,9.00
2023-03-26T00:14:36.069Z,8.97
2023-03-26T00:17:12.448Z,8.94
2023-03-26T00:19:56.037Z,8.95
2023-03-26T00:22:28.645Z,8.84
2023-03-26T00:25:25.966Z,8.84
2023-03-26T00:28:05.983Z,8.70
2023-03-26T00:30:41.902Z,8.46
2023-03-26T00:33:21.060Z,8.49
2023-03-26T00:36:01.307Z,8.19
2023-03-26T00:38:43.091Z,8.31
2023-03-26T00:41:37.422Z,8.15
2023-03-26T00:44:22.685Z,8.16
2023-03-26T00:47:06.670Z,8.12
2023-03-26T00:49:48.580Z,7.99
2023-03-26T00:52:24.061Z,8.04
2023-03-26T00:55:01.228Z,8.12
2023-03-26T00:57:43.439Z,8.24
2023-03-26T01:00:25.918Z,8.37
2023-03-26T01:03:09.160Z,8.47
2023-03-26T01:05:52.750Z,8.52
2023-03-26T01:08:43.619Z,8.62
2023-03-26T01:11:36.651Z,8.70
2023-03-26T01:14:20.997Z,8.49
2023-03-26T01:17:04.021Z,8.63
2023-03-26T01:19:51.307Z,8.76
2023-03-26T01:22:49.400Z,8.76
2023-03-26T01:25:34.511Z,8.79
2023-03-26T01:28:16.418Z,8.80
2023-03-26T01:31:06.351Z,8.91
2023-03-26T01:33:54.923Z,8.96
2023-03-26T01:36:42.042Z,8.89
2023-03-26T01:39:33.411Z,8.93
2023-03-26T01:42:21.617Z,8.93
2023-03-26T01:45:08.566Z,8.88
2023-03-26T01:47:48.865Z,8.83
2023-03-26T01:50:33.438Z,8.77
2023-03-26T01:53:19.956Z,8.84
2023-03-26T01:56:05.180Z,8.95
2023-03-26T01:59:01.707Z,8.98
2023-03-26T02:01:52.439Z,8.97
2023-03-26T02:04:47.149Z,9.00
2023-03-26T02:07:29.286Z,8.76
2023-03-26T02:10:17.664Z,8.93
2023-03-26T02:12:58.660Z,8.86
2023-03-26T02:15:42.892Z,8.79
2023-03-26T02:18:25.994Z,8.78
2023-03-26T02:21:04.700Z,8.73
2023-03-26T02:23:50.637Z,8.60
2023-03-26T02:26:28.718Z,8.54
2023-03-26T02:29:33.668Z,8.48
2023-03-26T02:32:22.448Z,8.38
2023-03-26T02:35:02.979Z,8.28
2023-03-26T02:37:38.926Z,8.23
2023-03-26T02:40:38.104Z,8.21
2023-03-26T02:43:17.214Z,8.24
2023-03-26T02:46:04.017Z,8.23
2023-03-26T02:49:12.948Z,8.21
2023-03-26T02:52:03.197Z,8.26
2023-03-26T02:54:46.957Z,8.27
2023-03-26T02:57:34.053Z,8.28
2023-03-26T03:00:34.021Z,8.28
2023-03-26T03:03:37.323Z,8.22
2023-03-26T03:06:41.531Z,8.16
2023-03-26T03:09:20.903Z,8.21
2023-03-26T03:12:34.841Z,8.15
2023-03-26T03:15:19.703Z,8.13
2023-03-26T03:17:59.743Z,8.03
2023-03-26T03:20:40.145Z,8.15
2023-03-26T03:23:29.946Z,8.14
2023-03-26T03:26:23.399Z,8.14
2023-03-26T03:29:04.997Z,8.10
2023-03-26T03:31:53.290Z,8.11
2023-03-26T03:34:51.329Z,8.09
2023-03-26T03:37:31.332Z,8.01
2023-03-26T03:40:23.742Z,7.94
2023-03-26T03:43:06.314Z,8.00
2023-03-26T03:45:56.067Z,7.99
2023-03-26T03:48:45.711Z,8.04
2023-03-26T03:51:37.712Z,8.02
2023-03-26T03:54:28.921Z,8.07
2023-03-26T03:57:26.516Z,8.03
2023-03-26T04:00:34.218Z,7.95
2023-03-26T04:03:33.052Z,7.81
2023-03-26T04:06:26.598Z,7.97
2023-03-26T04:09:16.065Z,7.99
2023-03-26T04:11:53.785Z,7.98
2023-03-26T04:15:00.195Z,7.92
2023-03-26T04:17:43.055Z,7.93
2023-03-26T04:20:26.927Z,7.92
2023-03-26T04:23:04.160Z,7.91
2023-03-26T04:25:47.310Z,7.84
2023-03-26T04:28:33.480Z,7.89
2023-03-26T04:31:41.120Z,7.89
2023-03-26T04:34:28.081Z,7.81
2023-03-26T04:37:34.914Z,7.84
2023-03-26T04:40:28.864Z,7.91
2023-03-26T04:43:32.783Z,7.93
2023-03-26T04:46:42.250Z,7.92
2023-03-26T04:49:29.767Z,7.93
2023-03-26T04:52:06.108Z,7.92
2023-03-26T04:54:57.647Z,7.80
2023-03-26T04:57:50.534Z,7.85
2023-03-26T05:00:50.142Z,7.89
2023-03-26T05:03:34.610Z,7.91
2023-03-26T05:06:23.481Z,7.76
2023-03-26T05:09:23.399Z,7.90
2023-03-26T05:12:30.371Z,7.89
2023-03-26T05:15:45.120Z,7.85
2023-03-26T05:18:46.088Z,7.79
2023-03-26T05:21:23.020Z,7.83
2023-03-26T05:23:59.043Z,7.79
2023-03-26T05:26:41.764Z,7.80
2023-03-26T05:29:23.806Z,7.74
2023-03-26T05:32:08.605Z,7.79
2023-03-26T05:34:48.562Z,7.77
2023-03-26T05:37:26.213Z,7.91
2023-03-26T05:40:17.260Z,7.95
2023-03-26T05:43:23.023Z,7.97
2023-03-26T05:46:36.086Z,8.01
2023-03-26T05:49:31.320Z,8.08
2023-03-26T05:52:26.057Z,8.22
2023-03-26T05:55:29.399Z,8.27
2023-03-26T05:58:52.818Z,8.39
2023-03-26T06:01:51.281Z,8.34
2023-03-26T06:04:58.362Z,8.59
2023-03-26T06:08:02.957Z,8.65
2023-03-26T06:10:47.371Z,8.79
2023-03-26T06:13:27.272Z,8.61
2023-03-26T06:16:27.181Z,8.80
2023-03-26T06:19:29.417Z,9.04
2023-03-26T06:22:13.720Z,9.07
2023-03-26T06:25:33.074Z,9.19
2023-03-26T06:28:29.125Z,9.24
2023-03-26T06:31:29.889Z,9.35
2023-03-26T06:34:33.163Z,9.32
2023-03-26T06:37:17.578Z,9.53
2023-03-26T06:39:56.353Z,9.51
2023-03-26T06:43:09.270Z,9.59
2023-03-26T06:46:02.834Z,9.64
2023-03-26T06:48:50.596Z,9.71
2023-03-26T06:51:51.153Z,9.82
2023-03-26T06:54:53.586Z,9.91
2023-03-26T06:58:11.003Z,10.01
2023-03-26T07:04:19.669Z,10.18
2023-03-26T07:07:28.638Z,10.26
2023-03-26T07:10:31.320Z,10.39
2023-03-26T07:13:28.469Z,10.51
2023-03-26T07:16:34.680Z,10.62
2023-03-26T07:19:34.329Z,10.72
2023-03-26T07:22:20.464Z,10.68
2023-03-26T07:25:44.224Z,10.90
2023-03-26T07:29:03.665Z,10.99
2023-03-26T07:32:27.267Z,11.22
2023-03-26T07:38:51.388Z,11.50
2023-03-26T07:41:58.440Z,11.67
2023-03-26T07:45:05.448Z,11.81
2023-03-26T07:48:04.880Z,11.93
2023-03-26T07:51:20.924Z,12.09
2023-03-26T07:54:18.801Z,12.18
2023-03-26T07:57:21.051Z,12.41
2023-03-26T08:00:17.349Z,12.53
2023-03-26T08:03:21.604Z,12.63
2023-03-26T08:06:34.530Z,12.72
2023-03-26T08:09:58.313Z,12.81
2023-03-26T08:12:55.530Z,13.28
2023-03-26T08:15:42.343Z,13.53
2023-03-26T08:18:40.276Z,13.69
2023-03-26T08:21:21.745Z,14.01
2023-03-26T08:24:13.432Z,14.32
2023-03-26T08:26:57.712Z,14.52
2023-03-26T08:29:42.455Z,14.89
2023-03-26T08:32:30.044Z,15.06
2023-03-26T08:35:10.199Z,15.20
2023-03-26T08:37:47.861Z,15.36
2023-03-26T08:40:40.892Z,15.45
2023-03-26T08:43:49.430Z,15.52
2023-03-26T08:47:09.895Z,15.54
2023-03-26T08:50:21.202Z,15.83
2023-03-26T08:53:26.367Z,16.01
2023-03-26T08:56:17.615Z,16.13
2023-03-26T08:59:45.458Z,16.28
2023-03-26T09:02:58.677Z,16.31
2023-03-26T09:05:57.001Z,16.40
2023-03-26T09:09:05.397Z,16.52
2023-03-26T09:12:13.851Z,16.60
2023-03-26T09:15:36.041Z,16.48
2023-03-26T09:18:53.555Z,16.55
2023-03-26T09:21:47.601Z,16.63
2023-03-26T09:25:15.965Z,16.76
2023-03-26T09:28:24.108Z,16.87
2023-03-26T09:31:31.951Z,17.03
2023-03-26T09:34:36.747Z,17.07
2023-03-26T09:37:33.545Z,17.16
2023-03-26T09:40:25.156Z,17.24
2023-03-26T09:43:15.025Z,17.34
2023-03-26T09:46:33.635Z,17.35
2023-03-26T09:49:33.224Z,17.37
2023-03-26T09:52:41.894Z,17.27
2023-03-26T09:55:53.312Z,17.23
2023-03-26T09:58:42.025Z,17.32
2023-03-26T10:01:27.367Z,17.33
2023-03-26T10:04:41.038Z,17.28
2023-03-26T10:07:49.686Z,17.27
2023-03-26T10:10:34.413Z,17.29
2023-03-26T10:13:30.358Z,17.47
2023-03-26T10:16:26.775Z,17.61
2023-03-26T10:19:30.302Z,17.60
2023-03-26T10:22:24.343Z,17.65
2023-03-26T10:25:30.259Z,17.92
2023-03-26T10:28:38.358Z,18.09
2023-03-26T10:31:44.162Z,18.18
2023-03-26T10:34:47.245Z,18.28
2023-03-26T10:37:45.734Z,18.44
2023-03-26T10:40:29.053Z,18.49
2023-03-26T10:43:37.331Z,18.68
2023-03-26T10:46:44.378Z,18.52
2023-03-26T10:49:51.340Z,18.56
2023-03-26T10:52:37.718Z,18.56
2023-03-26T10:55:27.816Z,18.52
2023-03-26T10:58:20.747Z,18.53
2023-03-26T11:01:08.196Z,18.63
2023-03-26T11:04:13.421Z,18.65
2023-03-26T11:07:05.034Z,18.59
2023-03-26T11:09:54.051Z,18.52
2023-03-26T11:12:34.819Z,18.51
2023-03-26T11:15:37.050Z,18.44
2023-03-26T11:18:24.989Z,18.34
2023-03-26T11:21:19.510Z,18.18
2023-03-26T11:24:17.587Z,18.19
2023-03-26T11:27:15.384Z,18.14
2023-03-26T11:30:20.993Z,18.20
2023-03-26T11:33:05.638Z,18.25
2023-03-26T11:35:48.643Z,18.31
2023-03-26T11:38:36.862Z,18.28
2023-03-26T11:41:32.882Z,18.15
2023-03-26T11:44:32.388Z,18.03
2023-03-26T11:47:17.153Z,18.14
2023-03-26T11:50:04.729Z,18.13
2023-03-26T11:52:47.015Z,18.15
2023-03-26T11:55:30.706Z,18.31
2023-03-26T11:58:38.946Z,18.49
2023-03-26T12:01:25.994Z,18.66
2023-03-26T12:04:19.612Z,18.77
2023-03-26T12:07:22.808Z,18.91
2023-03-26T12:10:18.649Z,19.09
2023-03-26T12:13:05.040Z,19.29
2023-03-26T12:15:52.356Z,19.38
2023-03-26T12:18:40.469Z,19.57
2023-03-26T12:21:15.354Z,19.66
2023-03-26T12:24:14.838Z,19.76
2023-03-26T12:26:58.217Z,19.96
2023-03-26T12:29:39.801Z,20.03
2023-03-26T12:32:27.404Z,20.13
2023-03-26T12:35:42.485Z,20.24
2023-03-26T12:38:31.646Z,20.14
2023-03-26T12:43:51.654Z,20.20
2023-03-26T12:44:46.610Z,20.23
2023-03-26T12:47:59.262Z,20.35
2023-03-26T12:50:56.298Z,20.48
2023-03-26T12:54:00.149Z,20.61
2023-03-26T12:56:46.677Z,20.74
2023-03-26T12:59:49.143Z,20.86
2023-03-26T13:02:58.598Z,20.87
2023-03-26T13:05:51.213Z,20.85
2023-03-26T13:08:50.881Z,20.78
2023-03-26T13:11:40.592Z,20.52
2023-03-26T13:14:52.762Z,20.41
2023-03-26T13:17:41.955Z,20.30
2023-03-26T13:20:23.388Z,20.17
2023-03-26T13:23:17.462Z,20.05
2023-03-26T13:26:01.830Z,19.96
2023-03-26T13:28:48.121Z,19.84
2023-03-26T13:31:53.491Z,19.68
2023-03-26T13:34:49.973Z,19.59
2023-03-26T13:37:38.366Z,19.50
2023-03-26T13:40:42.079Z,19.36
2023-03-26T13:43:37.093Z,19.27
2023-03-26T13:46:27.226Z,19.16
2023-03-26T13:49:18.126Z,19.12
2023-03-26T13:52:04.205Z,19.02
2023-03-26T13:54:46.522Z,18.83
2023-03-26T13:57:53.767Z,18.88
2023-03-26T14:00:39.710Z,18.79
2023-03-26T14:03:27.292Z,18.79
2023-03-26T14:06:06.455Z,18.80
2023-03-26T14:08:59.896Z,18.73
2023-03-26T14:11:50.249Z,18.81
2023-03-26T14:14:51.080Z,18.88
2023-03-26T14:17:35.117Z,19.07
2023-03-26T14:20:54.364Z,19.36
2023-03-26T14:24:21.008Z,19.71
2023-03-26T14:27:13.604Z,20.01
2023-03-26T14:30:23.472Z,20.17
2023-03-26T14:33:27.519Z,20.34
2023-03-26T14:36:16.839Z,20.44
2023-03-26T14:39:22.497Z,20.56
2023-03-26T14:42:04.842Z,20.62
2023-03-26T14:45:06.874Z,20.54
2023-03-26T14:48:20.052Z,20.51
2023-03-26T14:51:09.466Z,20.43
2023-03-26T14:53:58.005Z,20.31
2023-03-26T14:57:10.715Z,20.21
2023-03-26T15:00:23.652Z,20.17
2023-03-26T15:03:43.413Z,20.13
2023-03-26T15:07:04.164Z,20.13
2023-03-26T15:10:09.110Z,20.09
2023-03-26T15:12:57.606Z,20.04
2023-03-26T15:16:02.760Z,20.03
2023-03-26T15:19:19.975Z,20.04
2023-03-26T15:22:31.936Z,20.02
2023-03-26T15:25:38.274Z,20.11
2023-03-26T15:28:59.849Z,20.14
2023-03-26T15:32:07.234Z,20.13
2023-03-26T15:35:10.602Z,20.05
2023-03-26T15:38:09.940Z,20.15
2023-03-26T15:41:17.205Z,20.30
2023-03-26T15:44:40.952Z,20.19
2023-03-26T15:47:57.954Z,20.16
2023-03-26T15:51:03.425Z,20.09
2023-03-26T15:53:47.330Z,20.06
2023-03-26T15:56:36.516Z,19.93
2023-03-26T15:59:28.904Z,19.74
2023-03-26T16:02:33.261Z,19.53
2023-03-26T16:05:48.706Z,19.54
2023-03-26T16:08:40.056Z,19.51
2023-03-26T16:11:13.993Z,19.37
2023-03-26T16:14:23.583Z,19.34
2023-03-26T16:17:10.101Z,19.16
2023-03-26T16:20:31.825Z,19.01
2023-03-26T16:23:29.358Z,18.92
2023-03-26T16:26:23.141Z,18.84
2023-03-26T16:29:29.894Z,18.95
2023-03-26T16:32:15.975Z,18.92
2023-03-26T16:34:59.460Z,18.87
2023-03-26T16:38:26.685Z,18.97
2023-03-26T16:41:15.199Z,18.84
2023-03-26T16:44:16.752Z,18.74
2023-03-26T16:47:08.274Z,18.45
2023-03-26T16:50:13.264Z,18.46
2023-03-26T16:53:03.007Z,18.33
2023-03-26T16:55:53.052Z,18.20
2023-03-26T16:59:02.962Z,18.09
2023-03-26T17:02:05.980Z,17.97
2023-03-26T17:04:40.847Z,17.81
2023-03-26T17:07:31.224Z,17.72
2023-03-26T17:10:34.456Z,17.65
2023-03-26T17:13:16.304Z,17.55
2023-03-26T17:16:06.608Z,17.46
2023-03-26T17:19:01.374Z,17.37
2023-03-26T17:21:50.969Z,17.26
2023-03-26T17:24:45.194Z,17.23
2023-03-26T17:27:44.714Z,17.17
2023-03-26T17:30:46.445Z,17.11
2023-03-26T17:33:37.260Z,16.91
2023-03-26T17:36:58.477Z,17.01
2023-03-26T17:40:17.799Z,16.96
2023-03-26T17:43:19.524Z,16.94
2023-03-26T17:46:10.203Z,16.88
2023-03-26T17:48:52.952Z,16.83
2023-03-26T17:51:57.777Z,16.78
2023-03-26T17:54:55.670Z,16.68
2023-03-26T17:57:46.510Z,16.63
2023-03-26T18:00:27.177Z,16.56
2023-03-26T18:03:06.138Z,16.51
2023-03-26T18:06:00.790Z,16.48
2023-03-26T18:08:56.457Z,16.43
2023-03-26T18:12:04.341Z,16.40
2023-03-26T18:15:25.760Z,16.30
2023-03-26T18:18:35.116Z,16.25
2023-03-26T18:21:14.718Z,16.16
2023-03-26T18:23:59.677Z,16.14
2023-03-26T18:26:46.623Z,16.07
2023-03-26T18:29:36.141Z,16.00
2023-03-26T18:32:26.431Z,16.02
2023-03-26T18:35:22.402Z,15.99
2023-03-26T18:38:07.694Z,15.99
2023-03-26T18:41:10.291Z,15.94
2023-03-26T18:44:01.590Z,15.93
2023-03-26T18:46:49.257Z,15.87
2023-03-26T18:49:35.925Z,15.93
2023-03-26T18:52:32.148Z,15.86
2023-03-26T18:55:09.560Z,15.81
2023-03-26T18:58:01.157Z,15.71
2023-03-26T19:00:39.329Z,15.78
2023-03-26T19:03:24.722Z,15.71
2023-03-26T19:06:11.617Z,15.56
2023-03-26T19:08:56.381Z,15.75
2023-03-26T19:11:42.422Z,15.60
2023-03-26T19:14:30.342Z,15.59
2023-03-26T19:17:21.958Z,15.61
2023-03-26T19:20:07.878Z,15.63
2023-03-26T19:22:59.216Z,15.61
2023-03-26T19:25:43.938Z,15.59
2023-03-26T19:28:36.970Z,15.55
2023-03-26T19:31:29.261Z,15.40
2023-03-26T19:34:24.676Z,15.52
2023-03-26T19:37:12.397Z,15.50
2023-03-26T19:39:54.935Z,15.51
2023-03-26T19:42:45.928Z,15.51
2023-03-26T19:45:59.748Z,15.46
2023-03-26T19:48:57.052Z,15.29
2023-03-26T19:51:40.132Z,15.43
2023-03-26T19:54:20.474Z,15.39
2023-03-26T19:56:59.248Z,15.42
2023-03-26T19:59:38.436Z,15.37
2023-03-26T20:02:28.223Z,15.38
2023-03-26T20:05:15.534Z,15.31
2023-03-26T20:08:02.717Z,15.38
2023-03-26T20:10:50.858Z,15.20
2023-03-26T20:13:24.767Z,15.35
2023-03-26T20:16:09.988Z,15.34
2023-03-26T20:18:55.013Z,15.28
2023-03-26T20:21:51.213Z,15.10
2023-03-26T20:24:28.733Z,15.21
2023-03-26T20:27:20.900Z,15.27
2023-03-26T20:30:01.424Z,15.19
2023-03-26T20:32:46.998Z,15.15
2023-03-26T20:35:35.641Z,15.16
2023-03-26T20:38:14.162Z,15.13
2023-03-26T20:40:51.608Z,15.11
2023-03-26T20:43:34.178Z,14.99
2023-03-26T20:46:17.999Z,14.99
2023-03-26T20:48:56.741Z,14.98
2023-03-26T20:51:48.662Z,14.98
2023-03-26T20:54:36.538Z,14.99
2023-03-26T20:57:19.224Z,14.95
2023-03-26T20:59:55.360Z,14.88
2023-03-26T21:02:32.240Z,14.82
2023-03-26T21:05:29.638Z,14.73
2023-03-26T21:08:11.402Z,14.65
2023-03-26T21:11:15.760Z,14.56
2023-03-26T21:14:09.553Z,14.48
2023-03-26T21:17:06.607Z,14.41
2023-03-26T21:19:55.070Z,14.38
2023-03-26T21:22:41.831Z,14.35
2023-03-26T21:28:41.851Z,14.23
2023-03-26T21:31:33.733Z,14.19
2023-03-26T21:34:14.039Z,14.17
2023-03-26T21:36:59.066Z,14.13
2023-03-26T21:39:43.777Z,14.14
2023-03-26T21:42:19.136Z,14.13
2023-03-26T21:45:01.419Z,14.02
2023-03-26T21:47:57.368Z,13.96
2023-03-26T21:50:43.750Z,14.12
2023-03-26T21:53:22.884Z,14.11
2023-03-26T21:56:18.809Z,14.08
2023-03-26T21:59:11.974Z,14.08
2023-03-26T22:02:06.486Z,13.98
2023-03-26T22:04:53.591Z,14.02
2023-03-26T22:07:47.200Z,14.00
2023-03-26T22:10:34.433Z,14.02
2023-03-26T22:13:18.870Z,13.99
2023-03-26T22:15:57.462Z,14.04
2023-03-26T22:18:40.774Z,14.03
2023-03-26T22:21:33.206Z,14.02
2023-03-26T22:24:28.670Z,14.08
2023-03-26T22:27:05.984Z,14.10
2023-03-26T22:29:41.055Z,14.10
2023-03-26T22:32:21.613Z,14.04
2023-03-26T22:35:08.453Z,14.05
2023-03-26T22:37:47.455Z,14.04
2023-03-26T22:40:26.816Z,14.02
2023-03-26T22:43:08.800Z,14.01
2023-03-26T22:46:02.448Z,14.06
2023-03-26T22:48:49.849Z,14.03
2023-03-26T22:51:29.845Z,14.02
2023-03-26T22:54:06.260Z,14.05
2023-03-26T22:56:45.449Z,14.03
2023-03-26T22:59:23.854Z,14.02
2023-03-26T23:02:01.948Z,14.01
2023-03-26T23:04:54.355Z,14.03
2023-03-26T23:07:40.021Z,14.03
2023-03-26T23:10:26.387Z,14.02
2023-03-26T23:13:04.784Z,14.02
2023-03-26T23:15:46.525Z,13.97
2023-03-26T23:18:23.783Z,14.03
2023-03-26T23:21:05.040Z,14.05
2023-03-26T23:24:06.589Z,14.01
2023-03-26T23:26:50.644Z,13.93
2023-03-26T23:29:36.277Z,14.06
2023-03-26T23:32:24.638Z,14.04
2023-03-26T23:35:03.301Z,14.06
2023-03-26T23:37:38.419Z,14.01
2023-03-26T23:40:25.960Z,14.04
2023-03-26T23:43:10.346Z,14.02
2023-03-26T23:45:48.440Z,14.04
2023-03-26T23:48:30.442Z,14.05
2023-03-26T23:51:11.113Z,14.03
2023-03-26T23:53:55.976Z,14.03
2023-03-26T23:56:40.886Z,14.02
2023-03-26T23:59:28.810Z,14.02
